Terminal Aerodrome Forecast
Issued by NWS Shreveport, LA

Home | Current Version | Previous Version | Text Only | Print | Product List | Glossary On
Versions: 1 2 3 4 5 6 7 8 9 10 11 12 13 14 15 16 17 18
000
FTUS44 KSHV 210525
TAFSHV
TAF
KSHV 210525Z 2106/2206 00000KT P6SM SCT250
     FM211500 11007KT P6SM BKN150
     FM212100 15007KT P6SM SCT050 BKN100
     FM220200 17004KT P6SM BKN060=

USA.gov is the U.S. government's official web portal to all federal, state and local government web resources and services.